Schneifelwetter: Wetterstation Hallschlag, 537 m . NN
Wetterdaten: Donnerstag, 20.09.2012
Datum Zeit Temp. A. Feuchte A. Luftdruck Regen Wind Richtung Richtung Sonnenschein T Regen Taupunkt Windchill
20.09.2012 00:14 2,3 C 87 % 1021 hPa 0,0 l/m 0,0 km/h (0 Bft) W-SW 250 0 min 0 min 0,4 C 2,3 C
20.09.2012 00:29 2,5 C 87 % 1021 hPa 0,0 l/m 0,0 km/h (0 Bft) W-SW 250 0 min 0 min 0,6 C 2,5 C
20.09.2012 00:44 2,5 C 87 % 1021 hPa 0,0 l/m 0,0 km/h (0 Bft) W-SW 250 0 min 0 min 0,6 C 2,5 C
20.09.2012 00:59 2,1 C 87 % 1021 hPa 0,0 l/m 0,0 km/h (0 Bft) W-SW 250 0 min 0 min 0,2 C 2,1 C
20.09.2012 01:14 1,7 C 87 % 1021 hPa 0,0 l/m 0,0 km/h (0 Bft) W-SW 250 0 min 0 min -0,2 C 1,7 C
20.09.2012 01:29 1,4 C 88 % 1021 hPa 0,0 l/m 0,0 km/h (0 Bft) W-SW 250 0 min 0 min -0,4 C 1,4 C
20.09.2012 01:44 1,2 C 88 % 1021 hPa 0,0 l/m 0,0 km/h (0 Bft) W-SW 250 0 min 0 min -0,6 C 1,2 C
20.09.2012 01:59 1,1 C 89 % 1021 hPa 0,0 l/m 0,0 km/h (0 Bft) W-SW 250 0 min 0 min -0,5 C 1,1 C
20.09.2012 02:14 1,1 C 90 % 1022 hPa 0,0 l/m 0,0 km/h (0 Bft) W-SW 250 0 min 0 min -0,4 C 1,1 C
20.09.2012 02:29 1,2 C 90 % 1021 hPa 0,0 l/m 0,0 km/h (0 Bft) W-SW 250 0 min 0 min -0,3 C 1,2 C
20.09.2012 02:44 0,9 C 90 % 1021 hPa 0,0 l/m 0,0 km/h (0 Bft) W-SW 250 0 min 0 min -0,6 C 0,9 C
20.09.2012 02:59 0,5 C 89 % 1021 hPa 0,0 l/m 0,0 km/h (0 Bft) W-SW 250 0 min 0 min -1,1 C 0,5 C
20.09.2012 03:14 0,5 C 91 % 1021 hPa 0,0 l/m 0,0 km/h (0 Bft) W-SW 250 0 min 0 min -0,8 C 0,5 C
20.09.2012 03:29 0,2 C 91 % 1021 hPa 0,0 l/m 0,0 km/h (0 Bft) W-SW 250 0 min 0 min -1,1 C 0,2 C
20.09.2012 03:44 0,3 C 91 % 1021 hPa 0,0 l/m 0,0 km/h (0 Bft) W-SW 250 0 min 0 min -1,0 C 0,3 C
20.09.2012 03:59 0,3 C 91 % 1021 hPa 0,0 l/m 0,0 km/h (0 Bft) W-SW 250 0 min 0 min -1,0 C 0,3 C
20.09.2012 04:14 -0,2 C 91 % 1021 hPa 0,0 l/m 0,0 km/h (0 Bft) W-SW 250 0 min 0 min -1,5 C -0,2 C
20.09.2012 04:29 -0,6 C 91 % 1021 hPa 0,0 l/m 0,0 km/h (0 Bft) W-SW 250 0 min 0 min -1,9 C -0,6 C
20.09.2012 04:44 -0,9 C 91 % 1021 hPa 0,0 l/m 0,0 km/h (0 Bft) W-SW 250 0 min 0 min -2,2 C -0,9 C
20.09.2012 04:59 -0,8 C 92 % 1021 hPa 0,0 l/m 0,0 km/h (0 Bft) W-SW 250 0 min 0 min -1,9 C -0,8 C
20.09.2012 05:14 -1,1 C 91 % 1021 hPa 0,0 l/m 0,0 km/h (0 Bft) W-SW 250 0 min 0 min -2,4 C -1,1 C
20.09.2012 05:29 -1,4 C 92 % 1021 hPa 0,0 l/m 0,0 km/h (0 Bft) W-SW 250 0 min 0 min -2,5 C -1,4 C
20.09.2012 05:44 -1,6 C 92 % 1021 hPa 0,0 l/m 0,0 km/h (0 Bft) W-SW 250 0 min 0 min -2,7 C -1,6 C
20.09.2012 05:59 -1,8 C 92 % 1021 hPa 0,0 l/m 0,0 km/h (0 Bft) W-SW 250 0 min 0 min -2,9 C -1,8 C
20.09.2012 06:14 -1,9 C 92 % 1021 hPa 0,0 l/m 0,0 km/h (0 Bft) W-SW 250 0 min 0 min -3,0 C -1,9 C
20.09.2012 06:29 -2,0 C 92 % 1021 hPa 0,0 l/m 0,0 km/h (0 Bft) W-SW 250 0 min 0 min -3,1 C -2,0 C
20.09.2012 06:44 -2,1 C 92 % 1021 hPa 0,0 l/m 0,0 km/h (0 Bft) W-SW 250 0 min 0 min -3,2 C -2,1 C
20.09.2012 06:59 -2,2 C 92 % 1021 hPa 0,0 l/m 0,0 km/h (0 Bft) W-SW 250 0 min 0 min -3,3 C -2,2 C
20.09.2012 07:14 -2,2 C 92 % 1021 hPa 0,0 l/m 0,0 km/h (0 Bft) W-SW 250 0 min 0 min -3,3 C -2,2 C
20.09.2012 07:29 -2,0 C 92 % 1021 hPa 0,0 l/m 0,0 km/h (0 Bft) W-SW 250 0 min 0 min -3,1 C -2,0 C
20.09.2012 07:45 -2,1 C 92 % 1021 hPa 0,0 l/m 0,0 km/h (0 Bft) W-SW 250 0 min 0 min -3,2 C -2,1 C
20.09.2012 07:59 -1,8 C 93 % 1021 hPa 0,0 l/m 0,0 km/h (0 Bft) W-SW 250 0 min 0 min -2,8 C -1,8 C
20.09.2012 08:14 -1,5 C 93 % 1021 hPa 0,0 l/m 0,0 km/h (0 Bft) W-SW 250 0 min 0 min -2,5 C -1,5 C
20.09.2012 08:29 -1,2 C 93 % 1021 hPa 0,0 l/m 0,8 km/h (0 Bft) W-SW 255 0 min 0 min -2,2 C -1,2 C
20.09.2012 08:44 -0,6 C 94 % 1021 hPa 0,0 l/m 0,0 km/h (0 Bft) W-SW 250 0 min 0 min -1,4 C -0,6 C
20.09.2012 09:00 0,2 C 94 % 1021 hPa 0,0 l/m 0,0 km/h (0 Bft) W-SW 250 0 min 0 min -0,6 C 0,2 C
20.09.2012 09:14 1,5 C 94 % 1022 hPa 0,0 l/m 0,0 km/h (0 Bft) W-SW 250 0 min 0 min 0,6 C 1,5 C
20.09.2012 09:29 3,2 C 95 % 1022 hPa 0,0 l/m 3,3 km/h (1 Bft) W-SW 250 0 min 0 min 2,5 C 3,2 C
20.09.2012 09:44 5,2 C 95 % 1022 hPa 0,0 l/m 14,1 km/h (3 Bft) W-SW22.5 245 0 min 0 min 4,5 C -0,2 C
20.09.2012 09:59 6,5 C 93 % 1022 hPa 0,0 l/m 13,4 km/h (3 Bft) W-SW 245 0 min 0 min 5,5 C 1,7 C
20.09.2012 10:14 7,5 C 90 % 1022 hPa 0,0 l/m 13,0 km/h (3 Bft) W-SW22.5 250 0 min 0 min 6,0 C 3,1 C
20.09.2012 10:30 8,6 C 86 % 1022 hPa 0,0 l/m 9,6 km/h (2 Bft) SW22.5 225 0 min 0 min 6,4 C 6,3 C
20.09.2012 10:44 9,3 C 84 % 1022 hPa 0,0 l/m 19,7 km/h (3 Bft) W-SW22.5 250 0 min 0 min 6,7 C 2,5 C
20.09.2012 10:59 9,7 C 81 % 1022 hPa 0,0 l/m 18,0 km/h (3 Bft) W-SW22.5 240 0 min 0 min 6,6 C 3,6 C
20.09.2012 11:14 10,2 C 80 % 1022 hPa 0,0 l/m 14,8 km/h (3 Bft) SW45 230 0 min 0 min 6,9 C 5,5 C
20.09.2012 11:29 10,5 C 75 % 1022 hPa 0,0 l/m 15,7 km/h (3 Bft) SW67.5 225 0 min 0 min 6,3 C 5,5 C
20.09.2012 11:44 10,9 C 74 % 1022 hPa 0,0 l/m 22,1 km/h (4 Bft) W-SW45 245 0 min 0 min 6,5 C 3,8 C
20.09.2012 12:00 11,6 C 71 % 1022 hPa 0,0 l/m 20,5 km/h (4 Bft) W-SW45 240 0 min 0 min 6,5 C 5,2 C
20.09.2012 12:14 11,8 C 67 % 1022 hPa 0,0 l/m 19,9 km/h (4 Bft) SW45 235 0 min 0 min 5,9 C 5,6 C
20.09.2012 12:29 11,8 C 68 % 1021 hPa 0,0 l/m 22,8 km/h (4 Bft) SW67.5 220 0 min 0 min 6,1 C 4,8 C
20.09.2012 12:44 11,6 C 64 % 1021 hPa 0,0 l/m 21,6 km/h (4 Bft) W-SW45 245 0 min 0 min 5,0 C 4,9 C
20.09.2012 12:59 11,8 C 64 % 1021 hPa 0,0 l/m 24,6 km/h (4 Bft) W-SW67.5 255 0 min 0 min 5,2 C 4,4 C
20.09.2012 13:15 12,2 C 62 % 1021 hPa 0,0 l/m 23,3 km/h (4 Bft) SW67.5 230 0 min 0 min 5,1 C 5,2 C
20.09.2012 13:30 12,6 C 61 % 1021 hPa 0,0 l/m 17,8 km/h (3 Bft) S-SW67.5 200 0 min 0 min 5,3 C 7,3 C
20.09.2012 13:44 12,6 C 61 % 1021 hPa 0,0 l/m 18,1 km/h (3 Bft) S22.5 170 0 min 0 min 5,3 C 7,2 C
20.09.2012 13:59 12,9 C 60 % 1021 hPa 0,0 l/m 18,1 km/h (3 Bft) W-SW45 245 0 min 0 min 5,3 C 7,6 C
20.09.2012 14:14 12,9 C 60 % 1021 hPa 0,0 l/m 18,6 km/h (3 Bft) W-SW22.5 255 0 min 0 min 5,3 C 7,4 C
20.09.2012 14:29 13,0 C 60 % 1021 hPa 0,0 l/m 21,6 km/h (4 Bft) W-SW45 255 0 min 0 min 5,4 C 6,7 C
20.09.2012 14:45 12,8 C 58 % 1021 hPa 0,0 l/m 17,5 km/h (3 Bft) W45 270 0 min 0 min 4,7 C 7,7 C
20.09.2012 15:00 12,7 C 60 % 1021 hPa 0,0 l/m 20,4 km/h (4 Bft) W22.5 270 0 min 0 min 5,1 C 6,7 C
20.09.2012 15:14 13,3 C 59 % 1021 hPa 0,0 l/m 20,9 km/h (4 Bft) W45 265 0 min 0 min 5,5 C 7,3 C
20.09.2012 15:29 13,0 C 59 % 1021 hPa 0,0 l/m 14,1 km/h (3 Bft) W-SW 255 0 min 0 min 5,2 C 9,1 C
20.09.2012 15:44 12,9 C 59 % 1021 hPa 0,0 l/m 15,8 km/h (3 Bft) W-SW67.5 255 0 min 0 min 5,1 C 8,4 C
20.09.2012 15:59 12,5 C 60 % 1020 hPa 0,0 l/m 24,1 km/h (4 Bft) W22.5 260 0 min 0 min 5,0 C 5,4 C
20.09.2012 16:15 12,6 C 59 % 1020 hPa 0,0 l/m 14,8 km/h (3 Bft) W22.5 265 0 min 0 min 4,8 C 8,4 C
20.09.2012 16:30 12,9 C 58 % 1020 hPa 0,0 l/m 20,8 km/h (4 Bft) W-SW45 250 0 min 0 min 4,8 C 6,8 C
20.09.2012 16:44 13,0 C 58 % 1020 hPa 0,0 l/m 15,1 km/h (3 Bft) SW22.5 235 0 min 0 min 4,9 C 8,7 C
20.09.2012 16:59 13,0 C 58 % 1020 hPa 0,0 l/m 13,7 km/h (3 Bft) W-SW22.5 255 0 min 0 min 4,9 C 9,3 C
20.09.2012 17:14 13,0 C 59 % 1020 hPa 0,0 l/m 9,5 km/h (2 Bft) W-SW22.5 250 0 min 0 min 5,2 C 11,2 C
20.09.2012 17:29 13,0 C 57 % 1020 hPa 0,0 l/m 16,3 km/h (3 Bft) W-SW22.5 250 0 min 0 min 4,7 C 8,3 C
20.09.2012 17:45 12,4 C 59 % 1020 hPa 0,0 l/m 12,9 km/h (3 Bft) W-SW 250 0 min 0 min 4,6 C 8,9 C
20.09.2012 18:00 12,0 C 58 % 1020 hPa 0,0 l/m 15,1 km/h (3 Bft) W45 260 0 min 0 min 4,0 C 7,5 C
20.09.2012 18:14 11,8 C 59 % 1020 hPa 0,0 l/m 9,3 km/h (2 Bft) W-SW 240 0 min 0 min 4,1 C 10,0 C
20.09.2012 18:29 11,6 C 60 % 1019 hPa 0,0 l/m 10,3 km/h (2 Bft) W-SW 245 0 min 0 min 4,1 C 9,2 C
20.09.2012 18:44 11,0 C 61 % 1020 hPa 0,0 l/m 7,1 km/h (2 Bft) W-SW 245 0 min 0 min 3,8 C 10,5 C
20.09.2012 18:59 10,3 C 62 % 1020 hPa 0,0 l/m 0,1 km/h (0 Bft) W-SW 245 0 min 0 min 3,3 C 10,3 C
20.09.2012 19:15 9,4 C 63 % 1020 hPa 0,0 l/m 0,0 km/h (0 Bft) W-SW 245 0 min 0 min 2,7 C 9,4 C
20.09.2012 19:30 8,4 C 65 % 1020 hPa 0,0 l/m 0,0 km/h (0 Bft) W-SW 245 0 min 0 min 2,2 C 8,4 C
20.09.2012 19:44 7,3 C 67 % 1020 hPa 0,0 l/m 0,0 km/h (0 Bft) W-SW 245 0 min 0 min 1,6 C 7,3 C
20.09.2012 19:59 6,6 C 68 % 1020 hPa 0,0 l/m 0,0 km/h (0 Bft) W-SW 245 0 min 0 min 1,1 C 6,6 C
20.09.2012 20:14 5,8 C 70 % 1020 hPa 0,0 l/m 0,0 km/h (0 Bft) W-SW 245 0 min 0 min 0,8 C 5,8 C
20.09.2012 20:29 4,9 C 72 % 1020 hPa 0,0 l/m 0,0 km/h (0 Bft) W-SW 245 0 min 0 min 0,3 C 4,9 C
20.09.2012 20:45 4,3 C 74 % 1020 hPa 0,0 l/m 0,0 km/h (0 Bft) W-SW 245 0 min 0 min 0,1 C 4,3 C
20.09.2012 20:59 3,8 C 75 % 1020 hPa 0,0 l/m 0,0 km/h (0 Bft) W-SW 245 0 min 0 min -0,2 C 3,8 C
20.09.2012 21:14 3,5 C 76 % 1020 hPa 0,0 l/m 0,0 km/h (0 Bft) W-SW 245 0 min 0 min -0,3 C 3,5 C
20.09.2012 21:29 3,1 C 78 % 1020 hPa 0,0 l/m 0,0 km/h (0 Bft) W-SW 245 0 min 0 min -0,4 C 3,1 C
20.09.2012 21:44 2,7 C 78 % 1020 hPa 0,0 l/m 0,0 km/h (0 Bft) W-SW 245 0 min 0 min -0,7 C 2,7 C
20.09.2012 21:59 2,3 C 79 % 1020 hPa 0,0 l/m 0,0 km/h (0 Bft) W-SW 245 0 min 0 min -1,0 C 2,3 C
20.09.2012 22:15 2,0 C 80 % 1020 hPa 0,0 l/m 0,0 km/h (0 Bft) W-SW 245 0 min 0 min -1,1 C 2,0 C
20.09.2012 22:29 1,6 C 80 % 1020 hPa 0,0 l/m 0,0 km/h (0 Bft) W-SW 245 0 min 0 min -1,5 C 1,6 C
20.09.2012 22:44 1,2 C 81 % 1020 hPa 0,0 l/m 0,0 km/h (0 Bft) W-SW 245 0 min 0 min -1,7 C 1,2 C
20.09.2012 22:59 1,0 C 82 % 1020 hPa 0,0 l/m 0,0 km/h (0 Bft) W-SW 245 0 min 0 min -1,7 C 1,0 C
20.09.2012 23:14 0,7 C 82 % 1020 hPa 0,0 l/m 0,0 km/h (0 Bft) W-SW 245 0 min 0 min -2,0 C 0,7 C
20.09.2012 23:30 0,4 C 83 % 1020 hPa 0,0 l/m 0,0 km/h (0 Bft) W-SW 245 0 min 0 min -2,1 C 0,4 C
20.09.2012 23:44 0,3 C 83 % 1020 hPa 0,0 l/m 0,0 km/h (0 Bft) W-SW 245 0 min 0 min -2,2 C 0,3 C
20.09.2012 23:59 0,1 C 84 % 1019 hPa 0,0 l/m 0,0 km/h (0 Bft) W-SW 245 0 min 0 min -2,3 C 0,1 C
_ Min-Zeit 06:59 17:29 18:29 - 00:14 - - - - 06:59 06:59
Minimum _ -2,2 C 57 % 1019 hPa - 0,0 km/h (0 Bft) - - - - -3,3 C -2,2 C
_ Max-Zeit 15:14 09:29 02:14 00:14 12:59 - - 00:14 00:14 11:14 17:14
Maximum _ 13,3 C 95 % 1022 hPa 0,0 l/m 24,6 km/h
W-SW (4 Bft)
- - 0 min 0 min 6,9 C 11,2 C
Durchschnitt _ 5,2 C 78 % 1021 hPa #0,0 l/m 6,6 km/h (2 Bft) W-SW - #0 min. #0 min. 1,4 C 3,3 C